SHASTA DAM (USBR) (SHA)

Elevation: 1067' · SACRAMENTO R basin · Operator: US Bureau of Reclamation

Provisional data, subject to change.
Query executed Wednesday at 11:07:16   clock

Select a sensor type for a plot of data.
Note: Reservoir Flows are daily averages.

Earlier

Date RES ELE    STORAGE    RES CHG    TOC STO    ABV TOC    OUTFLOW    INFLOW    EVAP    FNF    RIV REL    PPT INC    RAIN    SPILL    DIS PWR   
 FEET   AF   AF   AF   AF   CFS   CFS   CFS   CFS   CFS   INCHES   INCHES   CFS   CFS  
09/02/2014 912.62 1325810 -9174 4552100 -3226290 7122 2605 108 2166 e 0 0.00 31.00 0 7122
09/03/2014 911.92 1316673 -9137 4552100 -3235427 6416 1928 119 2166 e 0 0.00 31.00 0 6416
09/04/2014 911.30 1308629 -8044 4552100 -3243471 6281 2356 130 2186 0 0.00 31.00 0 6281
09/05/2014 910.70 1300872 -7757 4552100 -3251228 6139 2361 133 1971 0 0.00 31.00 0 6139
09/06/2014 910.08 1292885 -7987 4552100 -3259215 6146 2255 136 2214 0 0.00 31.00 0 6146
09/07/2014 909.50 1285457 -7428 4552100 -3266643 5724 2114 135 2113 0 0.00 31.00 0 5724
09/08/2014 908.82 1276773 -8684 4552100 -3275327 5672 1414 120 2260 0 0.00 31.00 0 5672
09/09/2014 908.24 1269405 -7368 4552100 -3282695 5514 1922 123 2182 1434 0.00 31.00 0 4080
09/10/2014 907.71 1262697 -6708 4552100 -3289403 6177 2899 104 2275 1480 0.00 31.00 0 4697
09/11/2014 907.21 1256389 -6308 4552100 -3295711 5575 2506 111 2258 1458 0.00 31.00 0 4117
09/12/2014 906.81 1251359 -5030 4552100 -3300741 5868 3443 111 2403 2184 0.00 31.00 0 3684
09/13/2014 906.37 1245848 -5511 4552100 -3306252 5763 3096 111 2412 2185 0.00 31.00 0 3578
09/14/2014 906.02 1241464 -4384 4552100 -- 5100 3000 110 2320 2191 0.00 31.00 0 2909
09/15/2014 905.25 1231883 -9581 4552100 -3320217 5616 907 121 2400 e 2188 0.00 31.00 0 3428
09/16/2014 904.87 1227167 -4716 4552100 -3324933 5343 3085 120 2414 2186 0.00 31.00 0 3157
09/17/2014 904.45 1221980 -5187 4552100 -3330120 5070 2546 91 1616 2057 0.00 31.00 0 3013
09/18/2014 903.94 1215686 -6294 4552100 -3336414 5557 2478 94 2413 2180 0.00 31.00 0 3377
09/19/2014 903.55 1210903 -4783 4552100 -3341197 4968 2600 43 2207 1973 0.00 31.00 0 3017
09/20/2014 902.92 1203184 -7719 4552100 -3348916 5317 1533 108 2520 2174 0.00 31.00 0 3143
09/21/2014 902.33 1195999 -7185 4552100 -3356101 5061 1550 111 2451 2163 0.00 31.00 0 2898
09/22/2014 901.72 1188596 -7403 4552100 -3363504 5425 1789 96 2344 2165 0.00 31.00 0 3260
09/23/2014 901.53 1186299 -2297 4552100 -3365801 5021 3927 64 2020 2162 0.00 31.00 0 2859
09/24/2014 901.25 1182914 -3385 4552100 -3369186 4732 3100 75 2889 1429 0.00 31.00 0 3303
09/25/2014 901.20 1182310 -604 4552100 -3369790 4122 3959 142 4662 2161 2.00 33.00 0 1961
09/26/2014 900.88 1178452 -3858 4552100 -3373648 3365 1441 21 2585 2942 0.54 33.54 0 423
09/27/2014 900.55 1174490 -3962 4552100 -3377610 4139 2195 53 2397 2913 0.00 33.54 0 1226
09/28/2014 900.06 1168608 -5882 4552100 -3383492 4276 1364 53 3690 3032 0.00 33.54 0 1244
09/29/2014 899.58 1162846 -5762 4552100 -3389254 4170 1314 49 2700 2908 0.00 33.54 0 1262
09/30/2014 899.10 1157084 -5762 4552100 -3395016 4158 1288 35 2368 2961 0.00 -- 0 1197
10/01/2014 -- -- -- -- -- -- -- -- -- -- -- -- -- --

Later | Latest

Warning! This data is preliminary and subject to revision.

Download Data Now Download Data Now | Show SHA Map | Plot SHA Data | 1 Month SHA Data | Real-Time SHA Data | SHA Info